sensor_id;sensor_type;location;lat;lon;timestamp;temperature;humidity
25973;DHT22;13765;51.166;4.466;2023-07-13T00:00:42;17.10;99.90
25973;DHT22;13765;51.166;4.466;2023-07-13T00:03:07;17.10;99.90
25973;DHT22;13765;51.166;4.466;2023-07-13T00:05:36;17.10;99.90
25973;DHT22;13765;51.166;4.466;2023-07-13T00:08:01;17.10;99.90
25973;DHT22;13765;51.166;4.466;2023-07-13T00:10:27;17.10;99.90
25973;DHT22;13765;51.166;4.466;2023-07-13T00:12:52;17.10;99.90
25973;DHT22;13765;51.166;4.466;2023-07-13T00:15:23;17.10;99.90
25973;DHT22;13765;51.166;4.466;2023-07-13T00:17:50;17.20;99.90
25973;DHT22;13765;51.166;4.466;2023-07-13T00:20:16;17.20;99.90
25973;DHT22;13765;51.166;4.466;2023-07-13T00:22:42;17.20;99.90
25973;DHT22;13765;51.166;4.466;2023-07-13T00:25:11;17.20;99.90
25973;DHT22;13765;51.166;4.466;2023-07-13T00:27:37;17.10;99.90
25973;DHT22;13765;51.166;4.466;2023-07-13T00:30:05;17.10;99.90
25973;DHT22;13765;51.166;4.466;2023-07-13T00:32:34;17.00;99.90
25973;DHT22;13765;51.166;4.466;2023-07-13T00:35:01;16.90;99.90
25973;DHT22;13765;51.166;4.466;2023-07-13T00:37:26;16.90;99.90
25973;DHT22;13765;51.166;4.466;2023-07-13T00:39:52;16.80;99.90
25973;DHT22;13765;51.166;4.466;2023-07-13T00:42:18;16.80;99.90
25973;DHT22;13765;51.166;4.466;2023-07-13T00:47:33;16.80;99.90
25973;DHT22;13765;51.166;4.466;2023-07-13T00:49:59;16.80;99.90
25973;DHT22;13765;51.166;4.466;2023-07-13T00:52:28;16.70;99.90
25973;DHT22;13765;51.166;4.466;2023-07-13T00:54:54;16.60;99.90
25973;DHT22;13765;51.166;4.466;2023-07-13T00:57:21;16.60;99.90
25973;DHT22;13765;51.166;4.466;2023-07-13T00:59:53;16.60;99.90
25973;DHT22;13765;51.166;4.466;2023-07-13T01:02:22;16.60;99.90
25973;DHT22;13765;51.166;4.466;2023-07-13T01:04:49;16.50;99.90
25973;DHT22;13765;51.166;4.466;2023-07-13T01:07:15;16.60;99.90
25973;DHT22;13765;51.166;4.466;2023-07-13T01:09:41;16.70;99.90
25973;DHT22;13765;51.166;4.466;2023-07-13T01:12:07;16.80;99.90
25973;DHT22;13765;51.166;4.466;2023-07-13T01:14:33;16.70;99.90
25973;DHT22;13765;51.166;4.466;2023-07-13T01:16:59;16.60;99.90
25973;DHT22;13765;51.166;4.466;2023-07-13T01:22:15;16.60;99.90
25973;DHT22;13765;51.166;4.466;2023-07-13T01:24:45;16.60;99.90
25973;DHT22;13765;51.166;4.466;2023-07-13T01:27:14;16.70;99.90
25973;DHT22;13765;51.166;4.466;2023-07-13T01:29:41;16.70;99.90
25973;DHT22;13765;51.166;4.466;2023-07-13T01:32:18;16.50;99.90
25973;DHT22;13765;51.166;4.466;2023-07-13T01:34:52;16.40;99.90
25973;DHT22;13765;51.166;4.466;2023-07-13T01:37:23;16.40;99.90
25973;DHT22;13765;51.166;4.466;2023-07-13T01:39:48;16.40;99.90
25973;DHT22;13765;51.166;4.466;2023-07-13T01:42:14;16.30;99.90
25973;DHT22;13765;51.166;4.466;2023-07-13T01:44:42;16.30;99.90
25973;DHT22;13765;51.166;4.466;2023-07-13T01:47:11;16.30;99.90
25973;DHT22;13765;51.166;4.466;2023-07-13T01:49:36;16.30;99.90
25973;DHT22;13765;51.166;4.466;2023-07-13T01:52:05;16.20;99.90
25973;DHT22;13765;51.166;4.466;2023-07-13T01:54:31;16.20;99.90
25973;DHT22;13765;51.166;4.466;2023-07-13T01:56:59;16.20;99.90
25973;DHT22;13765;51.166;4.466;2023-07-13T01:59:25;16.20;99.90
25973;DHT22;13765;51.166;4.466;2023-07-13T02:01:50;16.10;99.90
25973;DHT22;13765;51.166;4.466;2023-07-13T02:04:18;16.20;99.90
25973;DHT22;13765;51.166;4.466;2023-07-13T02:06:44;16.20;99.90
25973;DHT22;13765;51.166;4.466;2023-07-13T02:09:12;16.20;99.90
25973;DHT22;13765;51.166;4.466;2023-07-13T02:11:37;16.10;99.90
25973;DHT22;13765;51.166;4.466;2023-07-13T02:14:05;16.20;99.90
25973;DHT22;13765;51.166;4.466;2023-07-13T02:16:31;16.20;99.90
25973;DHT22;13765;51.166;4.466;2023-07-13T02:18:57;16.20;99.90
25973;DHT22;13765;51.166;4.466;2023-07-13T02:21:26;16.20;99.90
25973;DHT22;13765;51.166;4.466;2023-07-13T02:23:51;16.10;99.90
25973;DHT22;13765;51.166;4.466;2023-07-13T02:26:20;16.00;99.90
25973;DHT22;13765;51.166;4.466;2023-07-13T02:28:48;16.00;99.90
25973;DHT22;13765;51.166;4.466;2023-07-13T02:31:15;16.00;99.90
25973;DHT22;13765;51.166;4.466;2023-07-13T02:33:43;16.00;99.90
25973;DHT22;13765;51.166;4.466;2023-07-13T02:36:09;15.90;99.90
25973;DHT22;13765;51.166;4.466;2023-07-13T02:38:37;15.90;99.90
25973;DHT22;13765;51.166;4.466;2023-07-13T02:41:07;15.90;99.90
25973;DHT22;13765;51.166;4.466;2023-07-13T02:43:34;15.90;99.90
25973;DHT22;13765;51.166;4.466;2023-07-13T02:46:02;16.00;99.90
25973;DHT22;13765;51.166;4.466;2023-07-13T02:48:37;16.00;99.90
25973;DHT22;13765;51.166;4.466;2023-07-13T02:51:06;16.10;99.90
25973;DHT22;13765;51.166;4.466;2023-07-13T02:53:32;16.10;99.90
25973;DHT22;13765;51.166;4.466;2023-07-13T02:55:58;16.10;99.90
25973;DHT22;13765;51.166;4.466;2023-07-13T02:58:27;16.20;99.90
25973;DHT22;13765;51.166;4.466;2023-07-13T03:00:52;16.10;99.90
25973;DHT22;13765;51.166;4.466;2023-07-13T03:03:23;16.10;99.90
25973;DHT22;13765;51.166;4.466;2023-07-13T03:05:59;16.20;99.90
25973;DHT22;13765;51.166;4.466;2023-07-13T03:08:27;16.20;99.90
25973;DHT22;13765;51.166;4.466;2023-07-13T03:11:03;16.20;99.90
25973;DHT22;13765;51.166;4.466;2023-07-13T03:13:29;16.20;99.90
25973;DHT22;13765;51.166;4.466;2023-07-13T03:15:54;16.30;99.90
25973;DHT22;13765;51.166;4.466;2023-07-13T03:18:20;16.30;99.90
25973;DHT22;13765;51.166;4.466;2023-07-13T03:20:46;16.30;99.90
25973;DHT22;13765;51.166;4.466;2023-07-13T03:23:13;16.30;99.90
25973;DHT22;13765;51.166;4.466;2023-07-13T03:25:41;16.30;99.90
25973;DHT22;13765;51.166;4.466;2023-07-13T03:28:07;16.30;99.90
25973;DHT22;13765;51.166;4.466;2023-07-13T03:30:35;16.30;99.90
25973;DHT22;13765;51.166;4.466;2023-07-13T03:33:01;16.30;99.90
25973;DHT22;13765;51.166;4.466;2023-07-13T03:35:28;16.40;99.90
25973;DHT22;13765;51.166;4.466;2023-07-13T03:37:54;16.30;99.90
25973;DHT22;13765;51.166;4.466;2023-07-13T03:40:22;16.30;99.90
25973;DHT22;13765;51.166;4.466;2023-07-13T03:42:48;16.30;99.90
25973;DHT22;13765;51.166;4.466;2023-07-13T03:45:14;16.40;99.90
25973;DHT22;13765;51.166;4.466;2023-07-13T03:47:42;16.40;99.90
25973;DHT22;13765;51.166;4.466;2023-07-13T03:50:08;16.40;99.90
25973;DHT22;13765;51.166;4.466;2023-07-13T03:52:36;16.30;99.90
25973;DHT22;13765;51.166;4.466;2023-07-13T03:55:02;16.40;99.90
25973;DHT22;13765;51.166;4.466;2023-07-13T03:57:28;16.50;99.90
25973;DHT22;13765;51.166;4.466;2023-07-13T03:59:54;16.40;99.90
25973;DHT22;13765;51.166;4.466;2023-07-13T04:02:19;16.40;99.90
25973;DHT22;13765;51.166;4.466;2023-07-13T04:04:46;16.40;99.90
25973;DHT22;13765;51.166;4.466;2023-07-13T04:07:12;16.50;99.90
25973;DHT22;13765;51.166;4.466;2023-07-13T04:09:38;16.50;99.90
25973;DHT22;13765;51.166;4.466;2023-07-13T04:12:04;16.50;99.90
25973;DHT22;13765;51.166;4.466;2023-07-13T04:14:32;16.50;99.90
25973;DHT22;13765;51.166;4.466;2023-07-13T04:16:58;16.50;99.90
25973;DHT22;13765;51.166;4.466;2023-07-13T04:19:24;16.50;99.90
25973;DHT22;13765;51.166;4.466;2023-07-13T04:21:53;16.50;99.90
25973;DHT22;13765;51.166;4.466;2023-07-13T04:24:21;16.60;99.90
25973;DHT22;13765;51.166;4.466;2023-07-13T04:26:47;16.60;99.90
25973;DHT22;13765;51.166;4.466;2023-07-13T04:29:12;16.60;99.90
25973;DHT22;13765;51.166;4.466;2023-07-13T04:31:38;16.50;99.90
25973;DHT22;13765;51.166;4.466;2023-07-13T04:34:06;16.60;99.90
25973;DHT22;13765;51.166;4.466;2023-07-13T04:36:32;16.50;99.90
25973;DHT22;13765;51.166;4.466;2023-07-13T04:38:58;16.50;99.90
25973;DHT22;13765;51.166;4.466;2023-07-13T04:41:24;16.50;99.90
25973;DHT22;13765;51.166;4.466;2023-07-13T04:43:49;16.50;99.90
25973;DHT22;13765;51.166;4.466;2023-07-13T04:46:16;16.50;99.90
25973;DHT22;13765;51.166;4.466;2023-07-13T04:48:45;16.50;99.90
25973;DHT22;13765;51.166;4.466;2023-07-13T04:51:15;16.60;99.90
25973;DHT22;13765;51.166;4.466;2023-07-13T04:53:41;16.50;99.90
25973;DHT22;13765;51.166;4.466;2023-07-13T04:56:07;16.50;99.90
25973;DHT22;13765;51.166;4.466;2023-07-13T04:58:35;16.60;99.90
25973;DHT22;13765;51.166;4.466;2023-07-13T05:01:04;16.70;99.90
25973;DHT22;13765;51.166;4.466;2023-07-13T05:03:34;16.60;99.90
25973;DHT22;13765;51.166;4.466;2023-07-13T05:06:02;16.80;99.90
25973;DHT22;13765;51.166;4.466;2023-07-13T05:08:29;16.90;99.90
25973;DHT22;13765;51.166;4.466;2023-07-13T05:10:54;16.90;99.90
25973;DHT22;13765;51.166;4.466;2023-07-13T05:13:20;16.90;99.90
25973;DHT22;13765;51.166;4.466;2023-07-13T05:15:56;16.90;99.90
25973;DHT22;13765;51.166;4.466;2023-07-13T05:18:25;17.00;99.90
25973;DHT22;13765;51.166;4.466;2023-07-13T05:21:10;17.00;99.90
25973;DHT22;13765;51.166;4.466;2023-07-13T05:23:36;17.00;99.90
25973;DHT22;13765;51.166;4.466;2023-07-13T05:26:03;17.00;99.90
25973;DHT22;13765;51.166;4.466;2023-07-13T05:28:31;17.00;99.90
25973;DHT22;13765;51.166;4.466;2023-07-13T05:30:57;17.00;99.90
25973;DHT22;13765;51.166;4.466;2023-07-13T05:33:24;17.10;99.90
25973;DHT22;13765;51.166;4.466;2023-07-13T05:35:52;17.20;99.90
25973;DHT22;13765;51.166;4.466;2023-07-13T05:38:18;17.30;99.90
25973;DHT22;13765;51.166;4.466;2023-07-13T05:40:47;17.20;99.90
25973;DHT22;13765;51.166;4.466;2023-07-13T05:43:13;17.30;99.90
25973;DHT22;13765;51.166;4.466;2023-07-13T05:45:39;17.30;99.90
25973;DHT22;13765;51.166;4.466;2023-07-13T05:48:05;17.30;99.90
25973;DHT22;13765;51.166;4.466;2023-07-13T05:50:31;17.30;99.90
25973;DHT22;13765;51.166;4.466;2023-07-13T05:52:57;17.50;99.90
25973;DHT22;13765;51.166;4.466;2023-07-13T05:55:22;17.60;99.90
25973;DHT22;13765;51.166;4.466;2023-07-13T05:57:48;17.60;99.90
25973;DHT22;13765;51.166;4.466;2023-07-13T06:00:14;17.70;99.90
25973;DHT22;13765;51.166;4.466;2023-07-13T06:02:40;17.60;99.90
25973;DHT22;13765;51.166;4.466;2023-07-13T06:05:06;17.60;99.90
25973;DHT22;13765;51.166;4.466;2023-07-13T06:07:32;17.60;99.90
25973;DHT22;13765;51.166;4.466;2023-07-13T06:09:57;17.60;99.90
25973;DHT22;13765;51.166;4.466;2023-07-13T06:12:25;17.60;99.90
25973;DHT22;13765;51.166;4.466;2023-07-13T06:14:50;17.60;99.90
25973;DHT22;13765;51.166;4.466;2023-07-13T06:17:16;17.60;99.90
25973;DHT22;13765;51.166;4.466;2023-07-13T06:19:42;17.70;99.90
25973;DHT22;13765;51.166;4.466;2023-07-13T06:22:08;17.60;99.90
25973;DHT22;13765;51.166;4.466;2023-07-13T06:27:01;17.70;99.90
25973;DHT22;13765;51.166;4.466;2023-07-13T06:29:32;17.80;99.90
25973;DHT22;13765;51.166;4.466;2023-07-13T06:31:57;17.70;99.90
25973;DHT22;13765;51.166;4.466;2023-07-13T06:34:25;17.80;99.90
25973;DHT22;13765;51.166;4.466;2023-07-13T06:36:53;17.80;99.90
25973;DHT22;13765;51.166;4.466;2023-07-13T06:39:19;17.90;99.90
25973;DHT22;13765;51.166;4.466;2023-07-13T06:41:47;17.80;99.90
25973;DHT22;13765;51.166;4.466;2023-07-13T06:44:14;17.80;99.90
25973;DHT22;13765;51.166;4.466;2023-07-13T06:46:40;17.90;99.90
25973;DHT22;13765;51.166;4.466;2023-07-13T06:49:09;18.00;99.90
25973;DHT22;13765;51.166;4.466;2023-07-13T06:51:37;17.90;99.90
25973;DHT22;13765;51.166;4.466;2023-07-13T06:54:03;18.10;99.90
25973;DHT22;13765;51.166;4.466;2023-07-13T06:56:29;18.20;99.90
25973;DHT22;13765;51.166;4.466;2023-07-13T06:58:54;18.20;99.90
25973;DHT22;13765;51.166;4.466;2023-07-13T07:01:20;18.20;99.90
25973;DHT22;13765;51.166;4.466;2023-07-13T07:03:48;18.20;99.90
25973;DHT22;13765;51.166;4.466;2023-07-13T07:06:19;18.30;99.90
25973;DHT22;13765;51.166;4.466;2023-07-13T07:08:48;18.50;99.90
25973;DHT22;13765;51.166;4.466;2023-07-13T07:11:24;18.40;99.90
25973;DHT22;13765;51.166;4.466;2023-07-13T07:13:53;18.60;99.90
25973;DHT22;13765;51.166;4.466;2023-07-13T07:16:19;18.70;99.90
25973;DHT22;13765;51.166;4.466;2023-07-13T07:18:46;18.80;99.90
25973;DHT22;13765;51.166;4.466;2023-07-13T07:21:12;19.00;99.90
25973;DHT22;13765;51.166;4.466;2023-07-13T07:23:38;19.30;99.90
25973;DHT22;13765;51.166;4.466;2023-07-13T07:26:04;19.40;99.90
25973;DHT22;13765;51.166;4.466;2023-07-13T07:28:38;19.30;99.90
25973;DHT22;13765;51.166;4.466;2023-07-13T07:31:06;19.40;99.90
25973;DHT22;13765;51.166;4.466;2023-07-13T07:33:33;19.80;99.90
25973;DHT22;13765;51.166;4.466;2023-07-13T07:36:02;20.10;99.90
25973;DHT22;13765;51.166;4.466;2023-07-13T07:38:29;20.20;99.90
25973;DHT22;13765;51.166;4.466;2023-07-13T07:40:56;20.10;99.90
25973;DHT22;13765;51.166;4.466;2023-07-13T07:43:22;20.40;99.90
25973;DHT22;13765;51.166;4.466;2023-07-13T07:45:50;20.70;99.90
25973;DHT22;13765;51.166;4.466;2023-07-13T07:48:16;21.10;99.90
25973;DHT22;13765;51.166;4.466;2023-07-13T07:50:44;21.60;99.90
25973;DHT22;13765;51.166;4.466;2023-07-13T07:53:10;21.60;99.90
25973;DHT22;13765;51.166;4.466;2023-07-13T07:55:36;21.70;99.90
25973;DHT22;13765;51.166;4.466;2023-07-13T07:58:02;21.70;99.90
25973;DHT22;13765;51.166;4.466;2023-07-13T08:00:28;21.80;99.90
25973;DHT22;13765;51.166;4.466;2023-07-13T08:02:59;22.00;99.90
25973;DHT22;13765;51.166;4.466;2023-07-13T08:05:28;21.90;99.90
25973;DHT22;13765;51.166;4.466;2023-07-13T08:07:53;21.90;99.90
25973;DHT22;13765;51.166;4.466;2023-07-13T08:10:19;22.00;99.90
25973;DHT22;13765;51.166;4.466;2023-07-13T08:12:47;22.10;99.90
25973;DHT22;13765;51.166;4.466;2023-07-13T08:15:16;22.00;99.90
25973;DHT22;13765;51.166;4.466;2023-07-13T08:17:43;22.00;99.90
25973;DHT22;13765;51.166;4.466;2023-07-13T08:20:11;21.80;99.90
25973;DHT22;13765;51.166;4.466;2023-07-13T08:22:37;21.60;99.90
25973;DHT22;13765;51.166;4.466;2023-07-13T08:25:03;21.30;99.90
25973;DHT22;13765;51.166;4.466;2023-07-13T08:27:29;21.00;99.90
25973;DHT22;13765;51.166;4.466;2023-07-13T08:29:57;21.20;99.90
25973;DHT22;13765;51.166;4.466;2023-07-13T08:32:23;21.50;99.90
25973;DHT22;13765;51.166;4.466;2023-07-13T08:34:52;21.90;99.90
25973;DHT22;13765;51.166;4.466;2023-07-13T08:37:18;22.10;99.90
25973;DHT22;13765;51.166;4.466;2023-07-13T08:39:45;22.20;99.90
25973;DHT22;13765;51.166;4.466;2023-07-13T08:48:01;22.80;99.90
25973;DHT22;13765;51.166;4.466;2023-07-13T08:50:32;23.10;99.90
25973;DHT22;13765;51.166;4.466;2023-07-13T08:53:03;23.10;99.90
25973;DHT22;13765;51.166;4.466;2023-07-13T08:55:33;22.80;99.90
25973;DHT22;13765;51.166;4.466;2023-07-13T08:58:15;22.80;99.90
25973;DHT22;13765;51.166;4.466;2023-07-13T09:03:18;22.70;99.90
25973;DHT22;13765;51.166;4.466;2023-07-13T09:05:51;23.00;99.90
25973;DHT22;13765;51.166;4.466;2023-07-13T09:16:57;24.10;99.90
25973;DHT22;13765;51.166;4.466;2023-07-13T09:19:28;24.60;99.90
25973;DHT22;13765;51.166;4.466;2023-07-13T09:21:57;24.70;99.90
25973;DHT22;13765;51.166;4.466;2023-07-13T09:27:15;24.40;99.90
25973;DHT22;13765;51.166;4.466;2023-07-13T09:29:47;24.50;99.90
25973;DHT22;13765;51.166;4.466;2023-07-13T09:32:18;24.70;99.90
25973;DHT22;13765;51.166;4.466;2023-07-13T09:34:56;24.90;99.90
25973;DHT22;13765;51.166;4.466;2023-07-13T09:37:27;24.80;99.90
25973;DHT22;13765;51.166;4.466;2023-07-13T09:39:54;24.80;99.90
25973;DHT22;13765;51.166;4.466;2023-07-13T09:42:22;24.80;99.90
25973;DHT22;13765;51.166;4.466;2023-07-13T09:44:59;24.80;99.90
25973;DHT22;13765;51.166;4.466;2023-07-13T09:47:30;24.50;99.90
25973;DHT22;13765;51.166;4.466;2023-07-13T09:50:17;24.30;99.90
25973;DHT22;13765;51.166;4.466;2023-07-13T09:52:49;23.90;99.90
25973;DHT22;13765;51.166;4.466;2023-07-13T09:55:37;23.50;99.90
25973;DHT22;13765;51.166;4.466;2023-07-13T10:00:41;22.60;99.90
25973;DHT22;13765;51.166;4.466;2023-07-13T10:05:49;22.20;99.90
25973;DHT22;13765;51.166;4.466;2023-07-13T10:08:26;22.40;99.90
25973;DHT22;13765;51.166;4.466;2023-07-13T10:11:22;22.50;99.90
25973;DHT22;13765;51.166;4.466;2023-07-13T10:14:00;22.60;99.90
25973;DHT22;13765;51.166;4.466;2023-07-13T10:16:33;22.60;99.90
25973;DHT22;13765;51.166;4.466;2023-07-13T10:19:34;22.30;99.90
25973;DHT22;13765;51.166;4.466;2023-07-13T10:22:02;22.00;99.90
25973;DHT22;13765;51.166;4.466;2023-07-13T10:24:36;22.00;99.90
25973;DHT22;13765;51.166;4.466;2023-07-13T10:32:26;22.80;99.90
25973;DHT22;13765;51.166;4.466;2023-07-13T10:34:52;22.80;99.90
25973;DHT22;13765;51.166;4.466;2023-07-13T10:37:51;23.00;99.90
25973;DHT22;13765;51.166;4.466;2023-07-13T10:40:19;23.20;99.90
25973;DHT22;13765;51.166;4.466;2023-07-13T10:42:50;23.40;99.90
25973;DHT22;13765;51.166;4.466;2023-07-13T10:45:22;23.30;99.90
25973;DHT22;13765;51.166;4.466;2023-07-13T10:47:50;23.60;99.90
25973;DHT22;13765;51.166;4.466;2023-07-13T10:50:27;24.30;99.90
25973;DHT22;13765;51.166;4.466;2023-07-13T10:53:03;24.80;99.90
25973;DHT22;13765;51.166;4.466;2023-07-13T11:03:22;25.30;99.90
25973;DHT22;13765;51.166;4.466;2023-07-13T11:06:03;25.30;99.90
25973;DHT22;13765;51.166;4.466;2023-07-13T11:18:48;24.90;99.90
25973;DHT22;13765;51.166;4.466;2023-07-13T11:21:19;24.80;99.90
25973;DHT22;13765;51.166;4.466;2023-07-13T11:23:53;24.60;99.90
25973;DHT22;13765;51.166;4.466;2023-07-13T11:26:42;24.40;99.90
25973;DHT22;13765;51.166;4.466;2023-07-13T11:32:10;24.20;99.90
25973;DHT22;13765;51.166;4.466;2023-07-13T11:34:46;23.90;99.90
25973;DHT22;13765;51.166;4.466;2023-07-13T11:37:16;23.60;99.90
25973;DHT22;13765;51.166;4.466;2023-07-13T11:39:46;23.40;99.90
25973;DHT22;13765;51.166;4.466;2023-07-13T11:42:16;23.20;99.90
25973;DHT22;13765;51.166;4.466;2023-07-13T11:44:49;23.00;99.90
25973;DHT22;13765;51.166;4.466;2023-07-13T11:47:24;22.60;99.90
25973;DHT22;13765;51.166;4.466;2023-07-13T11:49:53;22.10;99.90
25973;DHT22;13765;51.166;4.466;2023-07-13T11:52:26;21.90;99.90
25973;DHT22;13765;51.166;4.466;2023-07-13T11:54:55;21.60;99.90
25973;DHT22;13765;51.166;4.466;2023-07-13T11:57:31;21.40;99.90
25973;DHT22;13765;51.166;4.466;2023-07-13T12:00:04;21.00;99.90
25973;DHT22;13765;51.166;4.466;2023-07-13T12:02:38;20.70;99.90
25973;DHT22;13765;51.166;4.466;2023-07-13T12:05:09;20.60;99.90
25973;DHT22;13765;51.166;4.466;2023-07-13T12:07:37;20.50;99.90
25973;DHT22;13765;51.166;4.466;2023-07-13T12:10:27;20.40;99.90
25973;DHT22;13765;51.166;4.466;2023-07-13T12:13:05;20.20;99.90
25973;DHT22;13765;51.166;4.466;2023-07-13T12:15:45;20.20;99.90
25973;DHT22;13765;51.166;4.466;2023-07-13T12:18:28;20.30;99.90
25973;DHT22;13765;51.166;4.466;2023-07-13T12:20:59;20.40;99.90
25973;DHT22;13765;51.166;4.466;2023-07-13T12:23:32;20.60;99.90
25973;DHT22;13765;51.166;4.466;2023-07-13T12:26:00;20.50;99.90
25973;DHT22;13765;51.166;4.466;2023-07-13T12:28:44;20.80;99.90
25973;DHT22;13765;51.166;4.466;2023-07-13T12:34:14;21.00;99.90
25973;DHT22;13765;51.166;4.466;2023-07-13T12:36:56;21.00;99.90
25973;DHT22;13765;51.166;4.466;2023-07-13T12:39:24;20.90;99.90
25973;DHT22;13765;51.166;4.466;2023-07-13T12:41:52;20.90;99.90
25973;DHT22;13765;51.166;4.466;2023-07-13T12:44:29;20.80;99.90
25973;DHT22;13765;51.166;4.466;2023-07-13T12:47:04;20.60;99.90
25973;DHT22;13765;51.166;4.466;2023-07-13T12:49:53;20.50;99.90
25973;DHT22;13765;51.166;4.466;2023-07-13T12:52:24;20.50;99.90
25973;DHT22;13765;51.166;4.466;2023-07-13T12:55:02;20.50;99.90
25973;DHT22;13765;51.166;4.466;2023-07-13T12:57:28;20.70;99.90
25973;DHT22;13765;51.166;4.466;2023-07-13T12:59:54;20.70;99.90
25973;DHT22;13765;51.166;4.466;2023-07-13T13:02:32;20.70;99.90
25973;DHT22;13765;51.166;4.466;2023-07-13T13:05:04;20.70;99.90
25973;DHT22;13765;51.166;4.466;2023-07-13T13:07:30;20.80;99.90
25973;DHT22;13765;51.166;4.466;2023-07-13T13:09:59;21.00;99.90
25973;DHT22;13765;51.166;4.466;2023-07-13T13:12:27;21.30;99.90
25973;DHT22;13765;51.166;4.466;2023-07-13T13:14:53;21.50;99.90
25973;DHT22;13765;51.166;4.466;2023-07-13T13:17:24;21.70;99.90
25973;DHT22;13765;51.166;4.466;2023-07-13T13:19:52;21.90;99.90
25973;DHT22;13765;51.166;4.466;2023-07-13T13:22:22;22.40;99.90
25973;DHT22;13765;51.166;4.466;2023-07-13T13:24:48;22.90;99.90
25973;DHT22;13765;51.166;4.466;2023-07-13T13:27:21;23.30;99.90
25973;DHT22;13765;51.166;4.466;2023-07-13T13:29:49;23.50;99.90
25973;DHT22;13765;51.166;4.466;2023-07-13T13:32:19;23.60;99.90
25973;DHT22;13765;51.166;4.466;2023-07-13T13:34:45;23.90;99.90
25973;DHT22;13765;51.166;4.466;2023-07-13T13:37:22;23.80;99.90
25973;DHT22;13765;51.166;4.466;2023-07-13T13:39:51;24.20;99.90
25973;DHT22;13765;51.166;4.466;2023-07-13T13:42:19;24.10;99.90
25973;DHT22;13765;51.166;4.466;2023-07-13T13:44:46;24.00;99.90
25973;DHT22;13765;51.166;4.466;2023-07-13T13:47:32;23.80;99.90
25973;DHT22;13765;51.166;4.466;2023-07-13T13:50:01;23.60;99.90
25973;DHT22;13765;51.166;4.466;2023-07-13T13:52:30;23.50;99.90
25973;DHT22;13765;51.166;4.466;2023-07-13T13:54:58;23.70;99.90
25973;DHT22;13765;51.166;4.466;2023-07-13T13:57:24;24.20;99.90
25973;DHT22;13765;51.166;4.466;2023-07-13T13:59:52;24.90;99.90
25973;DHT22;13765;51.166;4.466;2023-07-13T14:02:28;25.50;99.90
25973;DHT22;13765;51.166;4.466;2023-07-13T14:05:03;25.30;99.90
25973;DHT22;13765;51.166;4.466;2023-07-13T14:07:29;25.10;99.90
25973;DHT22;13765;51.166;4.466;2023-07-13T14:09:58;24.80;99.90
25973;DHT22;13765;51.166;4.466;2023-07-13T14:12:27;24.40;99.90
25973;DHT22;13765;51.166;4.466;2023-07-13T14:14:55;24.40;99.90
25973;DHT22;13765;51.166;4.466;2023-07-13T14:17:25;24.40;99.90
25973;DHT22;13765;51.166;4.466;2023-07-13T14:19:53;24.10;99.90
25973;DHT22;13765;51.166;4.466;2023-07-13T14:22:25;24.00;99.90
25973;DHT22;13765;51.166;4.466;2023-07-13T14:24:54;23.70;99.90
25973;DHT22;13765;51.166;4.466;2023-07-13T14:27:26;23.50;99.90
25973;DHT22;13765;51.166;4.466;2023-07-13T14:29:52;23.60;99.90
25973;DHT22;13765;51.166;4.466;2023-07-13T14:32:20;23.30;99.90
25973;DHT22;13765;51.166;4.466;2023-07-13T14:34:45;23.00;99.90
25973;DHT22;13765;51.166;4.466;2023-07-13T14:37:17;23.20;99.90
25973;DHT22;13765;51.166;4.466;2023-07-13T14:39:44;23.10;99.90
25973;DHT22;13765;51.166;4.466;2023-07-13T14:42:13;23.10;99.90
25973;DHT22;13765;51.166;4.466;2023-07-13T14:44:42;23.10;99.90
25973;DHT22;13765;51.166;4.466;2023-07-13T14:47:10;23.20;99.90
25973;DHT22;13765;51.166;4.466;2023-07-13T14:49:43;23.40;99.90
25973;DHT22;13765;51.166;4.466;2023-07-13T14:52:15;23.50;99.90
25973;DHT22;13765;51.166;4.466;2023-07-13T14:54:42;23.50;99.90
25973;DHT22;13765;51.166;4.466;2023-07-13T14:57:16;23.50;99.90
25973;DHT22;13765;51.166;4.466;2023-07-13T14:59:42;23.20;99.90
25973;DHT22;13765;51.166;4.466;2023-07-13T15:02:31;23.20;99.90
25973;DHT22;13765;51.166;4.466;2023-07-13T15:04:58;23.20;99.90
25973;DHT22;13765;51.166;4.466;2023-07-13T15:07:26;23.40;99.90
25973;DHT22;13765;51.166;4.466;2023-07-13T15:09:54;23.80;99.90
25973;DHT22;13765;51.166;4.466;2023-07-13T15:12:22;24.00;99.90
25973;DHT22;13765;51.166;4.466;2023-07-13T15:14:50;24.10;99.90
25973;DHT22;13765;51.166;4.466;2023-07-13T15:17:37;24.00;99.90
25973;DHT22;13765;51.166;4.466;2023-07-13T15:20:19;24.20;99.90
25973;DHT22;13765;51.166;4.466;2023-07-13T15:22:49;24.50;99.90
25973;DHT22;13765;51.166;4.466;2023-07-13T15:25:22;24.90;99.90
25973;DHT22;13765;51.166;4.466;2023-07-13T15:27:50;25.30;99.90
25973;DHT22;13765;51.166;4.466;2023-07-13T15:30:16;25.60;99.90
25973;DHT22;13765;51.166;4.466;2023-07-13T15:32:43;25.90;99.90
25973;DHT22;13765;51.166;4.466;2023-07-13T15:35:19;25.90;99.90
25973;DHT22;13765;51.166;4.466;2023-07-13T15:37:48;25.40;99.90
25973;DHT22;13765;51.166;4.466;2023-07-13T15:40:15;25.50;99.90
25973;DHT22;13765;51.166;4.466;2023-07-13T15:42:43;25.50;99.90
25973;DHT22;13765;51.166;4.466;2023-07-13T15:47:42;25.50;99.90
25973;DHT22;13765;51.166;4.466;2023-07-13T15:50:23;25.30;99.90
25973;DHT22;13765;51.166;4.466;2023-07-13T15:52:52;25.10;99.90
25973;DHT22;13765;51.166;4.466;2023-07-13T15:55:21;25.10;99.90
25973;DHT22;13765;51.166;4.466;2023-07-13T15:57:53;25.10;99.90
25973;DHT22;13765;51.166;4.466;2023-07-13T16:02:46;25.10;99.90
25973;DHT22;13765;51.166;4.466;2023-07-13T16:05:12;25.20;99.90
25973;DHT22;13765;51.166;4.466;2023-07-13T16:07:38;25.50;99.90
25973;DHT22;13765;51.166;4.466;2023-07-13T16:10:04;25.60;99.90
25973;DHT22;13765;51.166;4.466;2023-07-13T16:12:35;25.50;99.90
25973;DHT22;13765;51.166;4.466;2023-07-13T16:15:04;25.30;99.90
25973;DHT22;13765;51.166;4.466;2023-07-13T16:17:30;25.30;99.90
25973;DHT22;13765;51.166;4.466;2023-07-13T16:19:58;25.40;99.90
25973;DHT22;13765;51.166;4.466;2023-07-13T16:22:24;25.40;99.90
25973;DHT22;13765;51.166;4.466;2023-07-13T16:24:53;25.40;99.90
25973;DHT22;13765;51.166;4.466;2023-07-13T16:27:22;25.10;99.90
25973;DHT22;13765;51.166;4.466;2023-07-13T16:29:49;25.40;99.90
25973;DHT22;13765;51.166;4.466;2023-07-13T16:32:15;25.60;99.90
25973;DHT22;13765;51.166;4.466;2023-07-13T16:34:46;25.70;99.90
25973;DHT22;13765;51.166;4.466;2023-07-13T16:37:29;25.60;99.90
25973;DHT22;13765;51.166;4.466;2023-07-13T16:39:58;25.50;99.90
25973;DHT22;13765;51.166;4.466;2023-07-13T16:42:26;25.50;99.90
25973;DHT22;13765;51.166;4.466;2023-07-13T16:44:52;25.30;99.90
25973;DHT22;13765;51.166;4.466;2023-07-13T16:47:22;25.30;99.90
25973;DHT22;13765;51.166;4.466;2023-07-13T16:49:48;25.30;99.90